sensor_id;sensor_type;location;lat;lon;timestamp;temperature;humidity
21115;DHT22;10715;48.546;9.896;2024-01-06T00:02:00;4.20;99.90
21115;DHT22;10715;48.546;9.896;2024-01-06T00:04:25;4.20;99.90
21115;DHT22;10715;48.546;9.896;2024-01-06T00:06:51;4.20;99.90
21115;DHT22;10715;48.546;9.896;2024-01-06T00:09:17;4.20;99.90
21115;DHT22;10715;48.546;9.896;2024-01-06T00:11:42;4.20;99.90
21115;DHT22;10715;48.546;9.896;2024-01-06T00:14:08;4.20;99.90
21115;DHT22;10715;48.546;9.896;2024-01-06T00:16:34;4.20;99.90
21115;DHT22;10715;48.546;9.896;2024-01-06T00:18:59;4.20;99.90
21115;DHT22;10715;48.546;9.896;2024-01-06T00:21:26;4.20;99.90
21115;DHT22;10715;48.546;9.896;2024-01-06T00:23:51;4.20;99.90
21115;DHT22;10715;48.546;9.896;2024-01-06T00:26:17;4.20;99.90
21115;DHT22;10715;48.546;9.896;2024-01-06T00:28:43;4.20;99.90
21115;DHT22;10715;48.546;9.896;2024-01-06T00:31:09;4.10;99.90
21115;DHT22;10715;48.546;9.896;2024-01-06T00:33:35;4.10;99.90
21115;DHT22;10715;48.546;9.896;2024-01-06T00:36:00;4.10;99.90
21115;DHT22;10715;48.546;9.896;2024-01-06T00:38:26;4.10;99.90
21115;DHT22;10715;48.546;9.896;2024-01-06T00:40:52;4.10;99.90
21115;DHT22;10715;48.546;9.896;2024-01-06T00:43:17;4.10;99.90
21115;DHT22;10715;48.546;9.896;2024-01-06T00:45:43;4.10;99.90
21115;DHT22;10715;48.546;9.896;2024-01-06T00:48:09;4.10;99.90
21115;DHT22;10715;48.546;9.896;2024-01-06T00:50:34;4.10;99.90
21115;DHT22;10715;48.546;9.896;2024-01-06T00:53:00;4.10;99.90
21115;DHT22;10715;48.546;9.896;2024-01-06T00:55:26;4.10;99.90
21115;DHT22;10715;48.546;9.896;2024-01-06T00:57:52;4.10;99.90
21115;DHT22;10715;48.546;9.896;2024-01-06T01:00:17;4.10;99.90
21115;DHT22;10715;48.546;9.896;2024-01-06T01:02:43;4.10;99.90
21115;DHT22;10715;48.546;9.896;2024-01-06T01:05:09;4.00;99.90
21115;DHT22;10715;48.546;9.896;2024-01-06T01:07:35;4.00;99.90
21115;DHT22;10715;48.546;9.896;2024-01-06T01:10:00;4.00;99.90
21115;DHT22;10715;48.546;9.896;2024-01-06T01:12:26;4.00;99.90
21115;DHT22;10715;48.546;9.896;2024-01-06T01:14:52;4.00;99.90
21115;DHT22;10715;48.546;9.896;2024-01-06T01:17:18;4.00;99.90
21115;DHT22;10715;48.546;9.896;2024-01-06T01:19:45;4.00;99.90
21115;DHT22;10715;48.546;9.896;2024-01-06T01:22:10;4.10;99.90
21115;DHT22;10715;48.546;9.896;2024-01-06T01:24:36;4.00;99.90
21115;DHT22;10715;48.546;9.896;2024-01-06T01:27:02;4.00;99.90
21115;DHT22;10715;48.546;9.896;2024-01-06T01:29:28;4.00;99.90
21115;DHT22;10715;48.546;9.896;2024-01-06T01:31:53;4.00;99.90
21115;DHT22;10715;48.546;9.896;2024-01-06T01:34:19;4.00;99.90
21115;DHT22;10715;48.546;9.896;2024-01-06T01:36:45;4.00;99.90
21115;DHT22;10715;48.546;9.896;2024-01-06T01:39:11;4.00;99.90
21115;DHT22;10715;48.546;9.896;2024-01-06T01:41:36;4.00;99.90
21115;DHT22;10715;48.546;9.896;2024-01-06T01:44:02;4.00;99.90
21115;DHT22;10715;48.546;9.896;2024-01-06T01:46:29;4.00;99.90
21115;DHT22;10715;48.546;9.896;2024-01-06T01:48:57;4.00;99.90
21115;DHT22;10715;48.546;9.896;2024-01-06T01:51:27;4.00;99.90
21115;DHT22;10715;48.546;9.896;2024-01-06T01:53:55;4.00;99.90
21115;DHT22;10715;48.546;9.896;2024-01-06T01:56:21;4.00;99.90
21115;DHT22;10715;48.546;9.896;2024-01-06T01:58:47;4.00;99.90
21115;DHT22;10715;48.546;9.896;2024-01-06T02:01:14;4.00;99.90
21115;DHT22;10715;48.546;9.896;2024-01-06T02:03:43;4.00;99.90
21115;DHT22;10715;48.546;9.896;2024-01-06T02:06:10;4.00;99.90
21115;DHT22;10715;48.546;9.896;2024-01-06T02:08:36;3.90;99.90
21115;DHT22;10715;48.546;9.896;2024-01-06T02:11:02;3.90;99.90
21115;DHT22;10715;48.546;9.896;2024-01-06T02:13:36;3.90;99.90
21115;DHT22;10715;48.546;9.896;2024-01-06T02:16:05;3.90;99.90
21115;DHT22;10715;48.546;9.896;2024-01-06T02:18:32;3.90;99.90
21115;DHT22;10715;48.546;9.896;2024-01-06T02:20:59;3.90;99.90
21115;DHT22;10715;48.546;9.896;2024-01-06T02:23:29;3.90;99.90
21115;DHT22;10715;48.546;9.896;2024-01-06T02:25:56;3.90;99.90
21115;DHT22;10715;48.546;9.896;2024-01-06T02:28:21;3.90;99.90
21115;DHT22;10715;48.546;9.896;2024-01-06T02:30:47;3.90;99.90
21115;DHT22;10715;48.546;9.896;2024-01-06T02:33:13;3.90;99.90
21115;DHT22;10715;48.546;9.896;2024-01-06T02:35:39;3.90;99.90
21115;DHT22;10715;48.546;9.896;2024-01-06T02:38:06;3.90;99.90
21115;DHT22;10715;48.546;9.896;2024-01-06T02:40:31;3.90;99.90
21115;DHT22;10715;48.546;9.896;2024-01-06T02:42:58;3.90;99.90
21115;DHT22;10715;48.546;9.896;2024-01-06T02:45:24;3.90;99.90
21115;DHT22;10715;48.546;9.896;2024-01-06T02:47:49;3.90;99.90
21115;DHT22;10715;48.546;9.896;2024-01-06T02:50:15;3.90;99.90
21115;DHT22;10715;48.546;9.896;2024-01-06T02:52:42;3.90;99.90
21115;DHT22;10715;48.546;9.896;2024-01-06T02:55:07;3.90;99.90
21115;DHT22;10715;48.546;9.896;2024-01-06T02:57:33;3.90;99.90
21115;DHT22;10715;48.546;9.896;2024-01-06T02:59:59;3.90;99.90
21115;DHT22;10715;48.546;9.896;2024-01-06T03:02:25;3.90;99.90
21115;DHT22;10715;48.546;9.896;2024-01-06T03:04:50;3.90;99.90
21115;DHT22;10715;48.546;9.896;2024-01-06T03:07:16;3.90;99.90
21115;DHT22;10715;48.546;9.896;2024-01-06T03:09:42;3.80;99.90
21115;DHT22;10715;48.546;9.896;2024-01-06T03:12:08;3.80;99.90
21115;DHT22;10715;48.546;9.896;2024-01-06T03:14:37;3.80;99.90
21115;DHT22;10715;48.546;9.896;2024-01-06T03:17:03;3.80;99.90
21115;DHT22;10715;48.546;9.896;2024-01-06T03:19:32;3.80;99.90
21115;DHT22;10715;48.546;9.896;2024-01-06T03:21:58;3.70;99.90
21115;DHT22;10715;48.546;9.896;2024-01-06T03:24:25;3.70;99.90
21115;DHT22;10715;48.546;9.896;2024-01-06T03:26:51;3.70;99.90
21115;DHT22;10715;48.546;9.896;2024-01-06T03:29:17;3.70;99.90
21115;DHT22;10715;48.546;9.896;2024-01-06T03:31:43;3.70;99.90
21115;DHT22;10715;48.546;9.896;2024-01-06T03:34:09;3.70;99.90
21115;DHT22;10715;48.546;9.896;2024-01-06T03:36:40;3.70;99.90
21115;DHT22;10715;48.546;9.896;2024-01-06T03:39:06;3.70;99.90
21115;DHT22;10715;48.546;9.896;2024-01-06T03:41:32;3.60;99.90
21115;DHT22;10715;48.546;9.896;2024-01-06T03:43:58;3.60;99.90
21115;DHT22;10715;48.546;9.896;2024-01-06T03:46:24;3.60;99.90
21115;DHT22;10715;48.546;9.896;2024-01-06T03:48:50;3.60;99.90
21115;DHT22;10715;48.546;9.896;2024-01-06T03:51:15;3.60;99.90
21115;DHT22;10715;48.546;9.896;2024-01-06T03:53:41;3.60;99.90
21115;DHT22;10715;48.546;9.896;2024-01-06T03:56:07;3.60;99.90
21115;DHT22;10715;48.546;9.896;2024-01-06T03:58:33;3.60;99.90
21115;DHT22;10715;48.546;9.896;2024-01-06T04:00:59;3.60;99.90
21115;DHT22;10715;48.546;9.896;2024-01-06T04:03:25;3.60;99.90
21115;DHT22;10715;48.546;9.896;2024-01-06T04:05:50;3.60;99.90
21115;DHT22;10715;48.546;9.896;2024-01-06T04:08:17;3.60;99.90
21115;DHT22;10715;48.546;9.896;2024-01-06T04:10:43;3.50;99.90
21115;DHT22;10715;48.546;9.896;2024-01-06T04:13:10;3.50;99.90
21115;DHT22;10715;48.546;9.896;2024-01-06T04:15:35;3.50;99.90
21115;DHT22;10715;48.546;9.896;2024-01-06T04:18:03;3.50;99.90
21115;DHT22;10715;48.546;9.896;2024-01-06T04:20:29;3.50;99.90
21115;DHT22;10715;48.546;9.896;2024-01-06T04:22:55;3.50;99.90
21115;DHT22;10715;48.546;9.896;2024-01-06T04:25:21;3.50;99.90
21115;DHT22;10715;48.546;9.896;2024-01-06T04:27:47;3.50;99.90
21115;DHT22;10715;48.546;9.896;2024-01-06T04:30:14;3.40;99.90
21115;DHT22;10715;48.546;9.896;2024-01-06T04:32:40;3.40;99.90
21115;DHT22;10715;48.546;9.896;2024-01-06T04:35:06;3.40;99.90
21115;DHT22;10715;48.546;9.896;2024-01-06T04:37:32;3.40;99.90
21115;DHT22;10715;48.546;9.896;2024-01-06T04:39:58;3.40;99.90
21115;DHT22;10715;48.546;9.896;2024-01-06T04:42:24;3.30;99.90
21115;DHT22;10715;48.546;9.896;2024-01-06T04:44:50;3.30;99.90
21115;DHT22;10715;48.546;9.896;2024-01-06T04:47:16;3.30;99.90
21115;DHT22;10715;48.546;9.896;2024-01-06T04:49:42;3.30;99.90
21115;DHT22;10715;48.546;9.896;2024-01-06T04:52:08;3.30;99.90
21115;DHT22;10715;48.546;9.896;2024-01-06T04:54:33;3.30;99.90
21115;DHT22;10715;48.546;9.896;2024-01-06T04:56:59;3.30;99.90
21115;DHT22;10715;48.546;9.896;2024-01-06T04:59:25;3.30;99.90
21115;DHT22;10715;48.546;9.896;2024-01-06T05:01:51;3.30;99.90
21115;DHT22;10715;48.546;9.896;2024-01-06T05:04:18;3.30;99.90
21115;DHT22;10715;48.546;9.896;2024-01-06T05:06:43;3.30;99.90
21115;DHT22;10715;48.546;9.896;2024-01-06T05:09:09;3.30;99.90
21115;DHT22;10715;48.546;9.896;2024-01-06T05:11:35;3.30;99.90
21115;DHT22;10715;48.546;9.896;2024-01-06T05:14:01;3.30;99.90
21115;DHT22;10715;48.546;9.896;2024-01-06T05:16:26;3.30;99.90
21115;DHT22;10715;48.546;9.896;2024-01-06T05:18:53;3.30;99.90
21115;DHT22;10715;48.546;9.896;2024-01-06T05:21:19;3.20;99.90
21115;DHT22;10715;48.546;9.896;2024-01-06T05:23:45;3.20;99.90
21115;DHT22;10715;48.546;9.896;2024-01-06T05:26:10;3.20;99.90
21115;DHT22;10715;48.546;9.896;2024-01-06T05:28:37;3.20;99.90
21115;DHT22;10715;48.546;9.896;2024-01-06T05:31:03;3.20;99.90
21115;DHT22;10715;48.546;9.896;2024-01-06T05:33:29;3.20;99.90
21115;DHT22;10715;48.546;9.896;2024-01-06T05:35:54;3.20;99.90
21115;DHT22;10715;48.546;9.896;2024-01-06T05:38:20;3.20;99.90
21115;DHT22;10715;48.546;9.896;2024-01-06T05:40:46;3.20;99.90
21115;DHT22;10715;48.546;9.896;2024-01-06T05:43:11;3.20;99.90
21115;DHT22;10715;48.546;9.896;2024-01-06T05:45:37;3.20;99.90
21115;DHT22;10715;48.546;9.896;2024-01-06T05:48:05;3.20;99.90
21115;DHT22;10715;48.546;9.896;2024-01-06T05:50:33;3.20;99.90
21115;DHT22;10715;48.546;9.896;2024-01-06T05:52:59;3.20;99.90
21115;DHT22;10715;48.546;9.896;2024-01-06T05:55:25;3.20;99.90
21115;DHT22;10715;48.546;9.896;2024-01-06T05:57:50;3.20;99.90
21115;DHT22;10715;48.546;9.896;2024-01-06T06:00:16;3.20;99.90
21115;DHT22;10715;48.546;9.896;2024-01-06T06:02:42;3.20;99.90
21115;DHT22;10715;48.546;9.896;2024-01-06T06:05:08;3.20;99.90
21115;DHT22;10715;48.546;9.896;2024-01-06T06:07:34;3.20;99.90
21115;DHT22;10715;48.546;9.896;2024-01-06T06:10:06;3.20;99.90
21115;DHT22;10715;48.546;9.896;2024-01-06T06:12:32;3.20;99.90
21115;DHT22;10715;48.546;9.896;2024-01-06T06:14:58;3.20;99.90
21115;DHT22;10715;48.546;9.896;2024-01-06T06:17:24;3.20;99.90
21115;DHT22;10715;48.546;9.896;2024-01-06T06:19:51;3.20;99.90
21115;DHT22;10715;48.546;9.896;2024-01-06T06:22:16;3.20;99.90
21115;DHT22;10715;48.546;9.896;2024-01-06T06:24:42;3.10;99.90
21115;DHT22;10715;48.546;9.896;2024-01-06T06:27:08;3.10;99.90
21115;DHT22;10715;48.546;9.896;2024-01-06T06:29:34;3.10;99.90
21115;DHT22;10715;48.546;9.896;2024-01-06T06:32:00;3.10;99.90
21115;DHT22;10715;48.546;9.896;2024-01-06T06:34:25;3.10;99.90
21115;DHT22;10715;48.546;9.896;2024-01-06T06:36:51;3.10;99.90
21115;DHT22;10715;48.546;9.896;2024-01-06T06:39:17;3.10;99.90
21115;DHT22;10715;48.546;9.896;2024-01-06T06:41:44;3.10;99.90
21115;DHT22;10715;48.546;9.896;2024-01-06T06:44:09;3.10;99.90
21115;DHT22;10715;48.546;9.896;2024-01-06T06:46:36;3.10;99.90
21115;DHT22;10715;48.546;9.896;2024-01-06T06:49:02;3.10;99.90
21115;DHT22;10715;48.546;9.896;2024-01-06T06:51:28;3.10;99.90
21115;DHT22;10715;48.546;9.896;2024-01-06T06:53:55;3.10;99.90
21115;DHT22;10715;48.546;9.896;2024-01-06T06:56:22;3.00;99.90
21115;DHT22;10715;48.546;9.896;2024-01-06T06:58:48;3.00;99.90
21115;DHT22;10715;48.546;9.896;2024-01-06T07:01:17;3.00;99.90
21115;DHT22;10715;48.546;9.896;2024-01-06T07:03:43;3.00;99.90
21115;DHT22;10715;48.546;9.896;2024-01-06T07:06:11;3.00;99.90
21115;DHT22;10715;48.546;9.896;2024-01-06T07:08:37;3.00;99.90
21115;DHT22;10715;48.546;9.896;2024-01-06T07:11:04;3.00;99.90
21115;DHT22;10715;48.546;9.896;2024-01-06T07:13:30;3.00;99.90
21115;DHT22;10715;48.546;9.896;2024-01-06T07:15:55;3.00;99.90
21115;DHT22;10715;48.546;9.896;2024-01-06T07:18:21;2.90;99.90
21115;DHT22;10715;48.546;9.896;2024-01-06T07:20:49;2.90;99.90
21115;DHT22;10715;48.546;9.896;2024-01-06T07:23:14;2.90;99.90
21115;DHT22;10715;48.546;9.896;2024-01-06T07:25:40;2.90;99.90
21115;DHT22;10715;48.546;9.896;2024-01-06T07:28:06;2.90;99.90
21115;DHT22;10715;48.546;9.896;2024-01-06T07:30:33;2.90;99.90
21115;DHT22;10715;48.546;9.896;2024-01-06T07:32:59;2.90;99.90
21115;DHT22;10715;48.546;9.896;2024-01-06T07:35:25;2.90;99.90
21115;DHT22;10715;48.546;9.896;2024-01-06T07:37:51;2.90;99.90
21115;DHT22;10715;48.546;9.896;2024-01-06T07:40:17;2.90;99.90
21115;DHT22;10715;48.546;9.896;2024-01-06T07:42:43;2.90;99.90
21115;DHT22;10715;48.546;9.896;2024-01-06T07:45:09;2.90;99.90
21115;DHT22;10715;48.546;9.896;2024-01-06T07:47:35;2.90;99.90
21115;DHT22;10715;48.546;9.896;2024-01-06T07:50:01;2.90;99.90
21115;DHT22;10715;48.546;9.896;2024-01-06T07:52:27;2.90;99.90
21115;DHT22;10715;48.546;9.896;2024-01-06T07:54:53;2.90;99.90
21115;DHT22;10715;48.546;9.896;2024-01-06T07:57:18;2.90;99.90
21115;DHT22;10715;48.546;9.896;2024-01-06T07:59:45;2.90;99.90
21115;DHT22;10715;48.546;9.896;2024-01-06T08:02:11;2.90;99.90
21115;DHT22;10715;48.546;9.896;2024-01-06T08:04:36;2.90;99.90
21115;DHT22;10715;48.546;9.896;2024-01-06T08:07:02;2.90;99.90
21115;DHT22;10715;48.546;9.896;2024-01-06T08:09:28;2.90;99.90
21115;DHT22;10715;48.546;9.896;2024-01-06T08:11:53;2.90;99.90
21115;DHT22;10715;48.546;9.896;2024-01-06T08:14:19;2.90;99.90
21115;DHT22;10715;48.546;9.896;2024-01-06T08:16:45;2.90;99.90
21115;DHT22;10715;48.546;9.896;2024-01-06T08:19:11;2.90;99.90
21115;DHT22;10715;48.546;9.896;2024-01-06T08:21:37;2.90;99.90
21115;DHT22;10715;48.546;9.896;2024-01-06T08:24:03;2.90;99.90
21115;DHT22;10715;48.546;9.896;2024-01-06T08:26:29;3.00;99.90
21115;DHT22;10715;48.546;9.896;2024-01-06T08:28:55;3.00;99.90
21115;DHT22;10715;48.546;9.896;2024-01-06T08:31:20;3.00;99.90
21115;DHT22;10715;48.546;9.896;2024-01-06T08:33:47;3.00;99.90
21115;DHT22;10715;48.546;9.896;2024-01-06T08:36:13;3.00;99.90
21115;DHT22;10715;48.546;9.896;2024-01-06T08:38:39;3.00;99.90
21115;DHT22;10715;48.546;9.896;2024-01-06T08:41:04;3.00;99.90
21115;DHT22;10715;48.546;9.896;2024-01-06T08:43:30;3.00;99.90
21115;DHT22;10715;48.546;9.896;2024-01-06T08:45:56;3.00;99.90
21115;DHT22;10715;48.546;9.896;2024-01-06T08:48:22;3.00;99.90
21115;DHT22;10715;48.546;9.896;2024-01-06T08:50:47;3.00;99.90
21115;DHT22;10715;48.546;9.896;2024-01-06T08:53:14;3.00;99.90
21115;DHT22;10715;48.546;9.896;2024-01-06T08:55:39;3.00;99.90
21115;DHT22;10715;48.546;9.896;2024-01-06T08:58:05;3.00;99.90
21115;DHT22;10715;48.546;9.896;2024-01-06T09:00:31;3.00;99.90
21115;DHT22;10715;48.546;9.896;2024-01-06T09:02:56;3.00;99.90
21115;DHT22;10715;48.546;9.896;2024-01-06T09:05:22;3.00;99.90
21115;DHT22;10715;48.546;9.896;2024-01-06T09:07:48;3.10;99.90
21115;DHT22;10715;48.546;9.896;2024-01-06T09:10:17;3.10;99.90
21115;DHT22;10715;48.546;9.896;2024-01-06T09:12:42;3.10;99.90
21115;DHT22;10715;48.546;9.896;2024-01-06T09:15:08;3.10;99.90
21115;DHT22;10715;48.546;9.896;2024-01-06T09:17:34;3.10;99.90
21115;DHT22;10715;48.546;9.896;2024-01-06T09:20:00;3.10;99.90
21115;DHT22;10715;48.546;9.896;2024-01-06T09:22:27;3.10;99.90
21115;DHT22;10715;48.546;9.896;2024-01-06T09:24:52;3.10;99.90
21115;DHT22;10715;48.546;9.896;2024-01-06T09:27:19;3.10;99.90
21115;DHT22;10715;48.546;9.896;2024-01-06T09:29:45;3.10;99.90
21115;DHT22;10715;48.546;9.896;2024-01-06T09:32:11;3.10;99.90
21115;DHT22;10715;48.546;9.896;2024-01-06T09:34:38;3.20;99.90
21115;DHT22;10715;48.546;9.896;2024-01-06T09:37:04;3.20;99.90
21115;DHT22;10715;48.546;9.896;2024-01-06T09:39:30;3.20;99.90
21115;DHT22;10715;48.546;9.896;2024-01-06T09:41:57;3.20;99.90
21115;DHT22;10715;48.546;9.896;2024-01-06T09:44:23;3.20;99.90
21115;DHT22;10715;48.546;9.896;2024-01-06T09:46:50;3.20;99.90
21115;DHT22;10715;48.546;9.896;2024-01-06T09:49:19;3.20;99.90
21115;DHT22;10715;48.546;9.896;2024-01-06T09:51:49;3.20;99.90
21115;DHT22;10715;48.546;9.896;2024-01-06T09:54:22;3.20;99.90
21115;DHT22;10715;48.546;9.896;2024-01-06T09:56:50;3.20;99.90
21115;DHT22;10715;48.546;9.896;2024-01-06T09:59:16;3.20;99.90
21115;DHT22;10715;48.546;9.896;2024-01-06T10:01:42;3.20;99.90
21115;DHT22;10715;48.546;9.896;2024-01-06T10:04:11;3.20;99.90
21115;DHT22;10715;48.546;9.896;2024-01-06T10:06:37;3.20;99.90
21115;DHT22;10715;48.546;9.896;2024-01-06T10:09:03;3.20;99.90
21115;DHT22;10715;48.546;9.896;2024-01-06T10:11:30;3.20;99.90
21115;DHT22;10715;48.546;9.896;2024-01-06T10:13:56;3.20;99.90
21115;DHT22;10715;48.546;9.896;2024-01-06T10:16:22;3.20;99.90
21115;DHT22;10715;48.546;9.896;2024-01-06T10:18:48;3.20;99.90
21115;DHT22;10715;48.546;9.896;2024-01-06T10:21:13;3.20;99.90
21115;DHT22;10715;48.546;9.896;2024-01-06T10:23:43;3.20;99.90
21115;DHT22;10715;48.546;9.896;2024-01-06T10:26:14;3.20;99.90
21115;DHT22;10715;48.546;9.896;2024-01-06T10:28:40;3.20;99.90
21115;DHT22;10715;48.546;9.896;2024-01-06T10:31:08;3.20;99.90
21115;DHT22;10715;48.546;9.896;2024-01-06T10:33:34;3.20;99.90
21115;DHT22;10715;48.546;9.896;2024-01-06T10:36:00;3.20;99.90
21115;DHT22;10715;48.546;9.896;2024-01-06T10:38:26;3.30;99.90
21115;DHT22;10715;48.546;9.896;2024-01-06T10:41:00;3.30;99.90
21115;DHT22;10715;48.546;9.896;2024-01-06T10:43:26;3.30;99.90
21115;DHT22;10715;48.546;9.896;2024-01-06T10:45:59;3.30;99.90
21115;DHT22;10715;48.546;9.896;2024-01-06T10:48:25;3.30;99.90
21115;DHT22;10715;48.546;9.896;2024-01-06T10:50:52;3.30;99.90
21115;DHT22;10715;48.546;9.896;2024-01-06T10:53:20;3.30;99.90
21115;DHT22;10715;48.546;9.896;2024-01-06T10:55:49;3.30;99.90
21115;DHT22;10715;48.546;9.896;2024-01-06T10:58:17;3.30;99.90
21115;DHT22;10715;48.546;9.896;2024-01-06T11:00:43;3.30;99.90
21115;DHT22;10715;48.546;9.896;2024-01-06T11:03:10;3.30;99.90
21115;DHT22;10715;48.546;9.896;2024-01-06T11:05:36;3.40;99.90
21115;DHT22;10715;48.546;9.896;2024-01-06T11:08:04;3.30;99.90
21115;DHT22;10715;48.546;9.896;2024-01-06T11:10:31;3.30;99.90
21115;DHT22;10715;48.546;9.896;2024-01-06T11:13:14;3.30;99.90
21115;DHT22;10715;48.546;9.896;2024-01-06T11:15:49;3.30;99.90
21115;DHT22;10715;48.546;9.896;2024-01-06T11:18:37;3.30;99.90
21115;DHT22;10715;48.546;9.896;2024-01-06T11:21:22;3.30;99.90
21115;DHT22;10715;48.546;9.896;2024-01-06T11:24:17;3.30;99.90
21115;DHT22;10715;48.546;9.896;2024-01-06T11:26:49;3.30;99.90
21115;DHT22;10715;48.546;9.896;2024-01-06T11:29:15;3.30;99.90
21115;DHT22;10715;48.546;9.896;2024-01-06T11:31:41;3.30;99.90
21115;DHT22;10715;48.546;9.896;2024-01-06T11:34:16;3.30;99.90
21115;DHT22;10715;48.546;9.896;2024-01-06T11:36:47;3.30;99.90
21115;DHT22;10715;48.546;9.896;2024-01-06T11:39:35;3.30;99.90
21115;DHT22;10715;48.546;9.896;2024-01-06T11:42:05;3.30;99.90
21115;DHT22;10715;48.546;9.896;2024-01-06T11:44:36;3.30;99.90
21115;DHT22;10715;48.546;9.896;2024-01-06T11:47:04;3.30;99.90
21115;DHT22;10715;48.546;9.896;2024-01-06T11:49:30;3.30;99.90
21115;DHT22;10715;48.546;9.896;2024-01-06T11:51:57;3.30;99.90
21115;DHT22;10715;48.546;9.896;2024-01-06T11:54:23;3.30;99.90
21115;DHT22;10715;48.546;9.896;2024-01-06T11:56:49;3.30;99.90
21115;DHT22;10715;48.546;9.896;2024-01-06T11:59:14;3.30;99.90
21115;DHT22;10715;48.546;9.896;2024-01-06T12:01:40;3.30;99.90
21115;DHT22;10715;48.546;9.896;2024-01-06T12:04:07;3.30;99.90
21115;DHT22;10715;48.546;9.896;2024-01-06T12:06:33;3.30;99.90
21115;DHT22;10715;48.546;9.896;2024-01-06T12:09:11;3.30;99.90
21115;DHT22;10715;48.546;9.896;2024-01-06T12:11:40;3.30;99.90
21115;DHT22;10715;48.546;9.896;2024-01-06T12:14:06;3.30;99.90
21115;DHT22;10715;48.546;9.896;2024-01-06T12:16:32;3.30;99.90
21115;DHT22;10715;48.546;9.896;2024-01-06T12:18:59;3.30;99.90
21115;DHT22;10715;48.546;9.896;2024-01-06T12:21:27;3.30;99.90
21115;DHT22;10715;48.546;9.896;2024-01-06T12:23:53;3.30;99.90
21115;DHT22;10715;48.546;9.896;2024-01-06T12:26:19;3.30;99.90
21115;DHT22;10715;48.546;9.896;2024-01-06T12:28:46;3.40;99.90
21115;DHT22;10715;48.546;9.896;2024-01-06T12:31:12;3.30;99.90
21115;DHT22;10715;48.546;9.896;2024-01-06T12:33:42;3.30;99.90
21115;DHT22;10715;48.546;9.896;2024-01-06T12:36:08;3.40;99.90
21115;DHT22;10715;48.546;9.896;2024-01-06T12:38:34;3.40;99.90
21115;DHT22;10715;48.546;9.896;2024-01-06T12:41:00;3.40;99.90
21115;DHT22;10715;48.546;9.896;2024-01-06T12:43:26;3.40;99.90
21115;DHT22;10715;48.546;9.896;2024-01-06T12:45:53;3.30;99.90
21115;DHT22;10715;48.546;9.896;2024-01-06T12:48:19;3.30;99.90
21115;DHT22;10715;48.546;9.896;2024-01-06T12:50:44;3.30;99.90
21115;DHT22;10715;48.546;9.896;2024-01-06T12:53:10;3.30;99.90
21115;DHT22;10715;48.546;9.896;2024-01-06T12:55:40;3.30;99.90
21115;DHT22;10715;48.546;9.896;2024-01-06T12:58:06;3.30;99.90
21115;DHT22;10715;48.546;9.896;2024-01-06T13:00:33;3.30;99.90
21115;DHT22;10715;48.546;9.896;2024-01-06T13:02:59;3.30;99.90
21115;DHT22;10715;48.546;9.896;2024-01-06T13:05:25;3.30;99.90
21115;DHT22;10715;48.546;9.896;2024-01-06T13:07:51;3.30;99.90
21115;DHT22;10715;48.546;9.896;2024-01-06T13:10:17;3.30;99.90
21115;DHT22;10715;48.546;9.896;2024-01-06T13:12:43;3.30;99.90
21115;DHT22;10715;48.546;9.896;2024-01-06T13:15:09;3.40;99.90
21115;DHT22;10715;48.546;9.896;2024-01-06T13:17:38;3.40;99.90
21115;DHT22;10715;48.546;9.896;2024-01-06T13:20:04;3.40;99.90
21115;DHT22;10715;48.546;9.896;2024-01-06T13:22:30;3.40;99.90
21115;DHT22;10715;48.546;9.896;2024-01-06T13:24:57;3.40;99.90
21115;DHT22;10715;48.546;9.896;2024-01-06T13:27:25;3.40;99.90
21115;DHT22;10715;48.546;9.896;2024-01-06T13:29:53;3.40;99.90
21115;DHT22;10715;48.546;9.896;2024-01-06T13:32:19;3.40;99.90
21115;DHT22;10715;48.546;9.896;2024-01-06T13:34:45;3.40;99.90
21115;DHT22;10715;48.546;9.896;2024-01-06T13:37:11;3.40;99.90
21115;DHT22;10715;48.546;9.896;2024-01-06T13:39:37;3.40;99.90
21115;DHT22;10715;48.546;9.896;2024-01-06T13:42:03;3.40;99.90
21115;DHT22;10715;48.546;9.896;2024-01-06T13:44:30;3.40;99.90
21115;DHT22;10715;48.546;9.896;2024-01-06T13:46:56;3.40;99.90
21115;DHT22;10715;48.546;9.896;2024-01-06T13:49:22;3.40;99.90
21115;DHT22;10715;48.546;9.896;2024-01-06T13:51:49;3.40;99.90
21115;DHT22;10715;48.546;9.896;2024-01-06T13:54:15;3.40;99.90
21115;DHT22;10715;48.546;9.896;2024-01-06T13:56:41;3.40;99.90
21115;DHT22;10715;48.546;9.896;2024-01-06T13:59:07;3.40;99.90
21115;DHT22;10715;48.546;9.896;2024-01-06T14:01:33;3.40;99.90
21115;DHT22;10715;48.546;9.896;2024-01-06T14:03:59;3.40;99.90
21115;DHT22;10715;48.546;9.896;2024-01-06T14:06:28;3.40;99.90
21115;DHT22;10715;48.546;9.896;2024-01-06T14:08:59;3.40;99.90
21115;DHT22;10715;48.546;9.896;2024-01-06T14:11:25;3.30;99.90
21115;DHT22;10715;48.546;9.896;2024-01-06T14:13:52;3.30;99.90
21115;DHT22;10715;48.546;9.896;2024-01-06T14:16:18;3.30;99.90
21115;DHT22;10715;48.546;9.896;2024-01-06T14:18:44;3.30;99.90
21115;DHT22;10715;48.546;9.896;2024-01-06T14:21:10;3.30;99.90
21115;DHT22;10715;48.546;9.896;2024-01-06T14:23:36;3.30;99.90
21115;DHT22;10715;48.546;9.896;2024-01-06T14:26:03;3.30;99.90
21115;DHT22;10715;48.546;9.896;2024-01-06T14:28:29;3.30;99.90
21115;DHT22;10715;48.546;9.896;2024-01-06T14:30:55;3.30;99.90
21115;DHT22;10715;48.546;9.896;2024-01-06T14:33:21;3.30;99.90
21115;DHT22;10715;48.546;9.896;2024-01-06T14:35:47;3.30;99.90
21115;DHT22;10715;48.546;9.896;2024-01-06T14:38:13;3.30;99.90
21115;DHT22;10715;48.546;9.896;2024-01-06T14:40:39;3.30;99.90
21115;DHT22;10715;48.546;9.896;2024-01-06T14:43:04;3.30;99.90
21115;DHT22;10715;48.546;9.896;2024-01-06T14:45:31;3.30;99.90
21115;DHT22;10715;48.546;9.896;2024-01-06T14:47:57;3.20;99.90
21115;DHT22;10715;48.546;9.896;2024-01-06T14:50:23;3.20;99.90
21115;DHT22;10715;48.546;9.896;2024-01-06T14:52:49;3.20;99.90
21115;DHT22;10715;48.546;9.896;2024-01-06T14:55:15;3.20;99.90
21115;DHT22;10715;48.546;9.896;2024-01-06T14:57:40;3.20;99.90
21115;DHT22;10715;48.546;9.896;2024-01-06T15:00:07;3.20;99.90
21115;DHT22;10715;48.546;9.896;2024-01-06T15:02:39;3.20;99.90
21115;DHT22;10715;48.546;9.896;2024-01-06T15:05:06;3.20;99.90
21115;DHT22;10715;48.546;9.896;2024-01-06T15:07:31;3.20;99.90
21115;DHT22;10715;48.546;9.896;2024-01-06T15:09:59;3.20;99.90
21115;DHT22;10715;48.546;9.896;2024-01-06T15:12:25;3.20;99.90
21115;DHT22;10715;48.546;9.896;2024-01-06T15:14:52;3.20;99.90
21115;DHT22;10715;48.546;9.896;2024-01-06T15:17:17;3.20;99.90
21115;DHT22;10715;48.546;9.896;2024-01-06T15:19:45;3.20;99.90
21115;DHT22;10715;48.546;9.896;2024-01-06T15:22:11;3.20;99.90
21115;DHT22;10715;48.546;9.896;2024-01-06T15:24:36;3.20;99.90
21115;DHT22;10715;48.546;9.896;2024-01-06T15:27:02;3.20;99.90
21115;DHT22;10715;48.546;9.896;2024-01-06T15:29:28;3.20;99.90
21115;DHT22;10715;48.546;9.896;2024-01-06T15:31:54;3.20;99.90
21115;DHT22;10715;48.546;9.896;2024-01-06T15:34:25;3.10;99.90
21115;DHT22;10715;48.546;9.896;2024-01-06T15:36:51;3.10;99.90
21115;DHT22;10715;48.546;9.896;2024-01-06T15:39:17;3.10;99.90
21115;DHT22;10715;48.546;9.896;2024-01-06T15:41:43;3.10;99.90